Time,TemperatureF,DewpointF,PressureIn,WindDirection,WindDirectionDegrees,WindSpeedMPH,WindSpeedGustMPH,Humidity,HourlyPrecipIn,Conditions,Clouds,dailyrainin,SolarRadiationWatts/m^2,SoftwareType,DateUTC
2013-04-16 00:02:00,64.0,59.0,-100.00,SSE,153,1.0,4.0,84,0.00,,,0.03,0.000000,,2013-04-16 04:02:00,
2013-04-16 00:23:00,64.0,59.0,-100.00,SSE,153,1.0,4.0,84,0.00,,,0.03,0.000000,,2013-04-16 04:23:00,
2013-04-16 00:33:00,64.0,59.0,-100.00,SSE,153,1.0,4.0,84,0.00,,,0.03,0.000000,,2013-04-16 04:33:00,
2013-04-16 00:42:00,64.0,59.0,-100.00,SSE,153,1.0,4.0,84,0.00,,,0.03,0.000000,,2013-04-16 04:42:00,
2013-04-16 00:53:00,64.0,59.0,-100.00,SSE,153,1.0,4.0,84,0.00,,,0.03,0.000000,,2013-04-16 04:53:00,
2013-04-16 01:02:00,62.0,58.0,-100.00,ENE,74,1.0,4.0,88,0.00,,,0.02,0.000000,,2013-04-16 05:02:00,
2013-04-16 01:22:00,62.0,58.0,-100.00,ENE,74,1.0,4.0,88,0.00,,,0.02,0.000000,,2013-04-16 05:22:00,
2013-04-16 01:32:00,62.0,58.0,-100.00,ENE,74,1.0,4.0,88,0.00,,,0.02,0.000000,,2013-04-16 05:32:00,
2013-04-16 01:42:00,62.0,58.0,-100.00,ENE,74,1.0,4.0,88,0.00,,,0.02,0.000000,,2013-04-16 05:42:00,
2013-04-16 01:52:00,62.0,58.0,-100.00,ENE,74,1.0,4.0,88,0.00,,,0.02,0.000000,,2013-04-16 05:52:00,
2013-04-16 02:02:00,60.0,57.0,-100.00,ESE,110,1.0,4.0,91,0.00,,,0.01,0.000000,,2013-04-16 06:02:00,
2013-04-16 02:22:00,60.0,57.0,-100.00,ESE,110,1.0,4.0,91,0.00,,,0.01,0.000000,,2013-04-16 06:22:00,
2013-04-16 02:32:00,60.0,57.0,-100.00,ESE,110,1.0,4.0,91,0.00,,,0.01,0.000000,,2013-04-16 06:32:00,
2013-04-16 02:42:00,60.0,57.0,-100.00,ESE,110,1.0,4.0,91,0.00,,,0.01,0.000000,,2013-04-16 06:42:00,
2013-04-16 02:52:00,60.0,57.0,-100.00,ESE,110,1.0,4.0,91,0.00,,,0.01,0.000000,,2013-04-16 06:52:00,
2013-04-16 03:02:00,60.0,58.0,-100.00,NE,39,2.0,6.0,92,0.00,,,0.00,0.000000,,2013-04-16 07:02:00,
2013-04-16 03:22:00,60.0,58.0,-100.00,NE,39,2.0,6.0,92,0.00,,,0.00,0.000000,,2013-04-16 07:22:00,
2013-04-16 03:32:00,60.0,58.0,-100.00,NE,39,2.0,6.0,92,0.00,,,0.00,0.000000,,2013-04-16 07:32:00,
2013-04-16 03:42:00,60.0,58.0,-100.00,NE,39,2.0,6.0,92,0.00,,,0.00,0.000000,,2013-04-16 07:42:00,
2013-04-16 03:53:00,60.0,58.0,-100.00,NE,39,2.0,6.0,92,0.00,,,0.00,0.000000,,2013-04-16 07:53:00,
2013-04-16 04:02:00,59.0,57.0,-100.00,ESE,112,1.0,6.0,94,0.00,,,0.00,0.000000,,2013-04-16 08:02:00,
2013-04-16 04:32:00,59.0,57.0,-100.00,ESE,112,1.0,6.0,94,0.00,,,0.00,0.000000,,2013-04-16 08:32:00,
2013-04-16 04:42:00,59.0,57.0,-100.00,ESE,112,1.0,6.0,94,0.00,,,0.00,0.000000,,2013-04-16 08:42:00,
2013-04-16 04:52:00,59.0,57.0,-100.00,ESE,112,1.0,6.0,94,0.00,,,0.00,0.000000,,2013-04-16 08:52:00,
2013-04-16 05:02:00,59.0,57.0,-100.00,NNW,346,2.0,4.0,93,0.00,,,0.00,0.000000,,2013-04-16 09:02:00,
2013-04-16 05:22:00,59.0,57.0,-100.00,NNW,346,2.0,4.0,93,0.00,,,0.00,0.000000,,2013-04-16 09:22:00,
2013-04-16 05:33:00,59.0,57.0,-100.00,NNW,346,2.0,4.0,93,0.00,,,0.00,0.000000,,2013-04-16 09:33:00,
2013-04-16 05:43:00,59.0,57.0,-100.00,NNW,346,2.0,4.0,93,0.00,,,0.00,0.000000,,2013-04-16 09:43:00,
2013-04-16 05:53:00,59.0,57.0,-100.00,NNW,346,2.0,4.0,93,0.00,,,0.00,0.000000,,2013-04-16 09:53:00,
2013-04-16 06:02:00,60.0,58.0,-100.00,WNW,284,1.0,3.0,94,0.00,,,0.00,0.000000,,2013-04-16 10:02:00,
2013-04-16 06:23:00,60.0,58.0,-100.00,WNW,284,1.0,3.0,94,0.00,,,0.00,0.000000,,2013-04-16 10:23:00,
2013-04-16 06:33:00,60.0,58.0,-100.00,WNW,284,1.0,3.0,94,0.00,,,0.00,0.000000,,2013-04-16 10:33:00,
2013-04-16 06:43:00,60.0,58.0,-100.00,WNW,284,1.0,3.0,94,0.00,,,0.00,0.000000,,2013-04-16 10:43:00,
2013-04-16 06:53:00,60.0,58.0,-100.00,WNW,284,1.0,3.0,94,0.00,,,0.00,0.000000,,2013-04-16 10:53:00,
2013-04-16 07:02:00,60.0,59.0,-100.00,South,181,1.0,4.0,95,0.00,,,0.00,0.000000,,2013-04-16 11:02:00,
2013-04-16 07:22:00,60.0,59.0,-100.00,South,181,1.0,4.0,95,0.00,,,0.00,0.000000,,2013-04-16 11:22:00,
2013-04-16 07:32:00,60.0,59.0,-100.00,South,181,1.0,4.0,95,0.00,,,0.00,0.000000,,2013-04-16 11:32:00,
2013-04-16 07:42:00,60.0,59.0,-100.00,South,181,1.0,4.0,95,0.00,,,0.00,0.000000,,2013-04-16 11:42:00,
2013-04-16 07:53:00,60.0,59.0,-100.00,South,181,1.0,4.0,95,0.00,,,0.00,0.000000,,2013-04-16 11:53:00,
2013-04-16 08:02:00,61.0,60.0,-100.00,North,9,1.0,3.0,97,0.00,,,0.00,5.000000,,2013-04-16 12:02:00,
2013-04-16 08:32:00,61.0,60.0,-100.00,North,9,1.0,3.0,97,0.00,,,0.00,5.000000,,2013-04-16 12:32:00,
2013-04-16 08:42:00,61.0,60.0,-100.00,North,9,1.0,3.0,97,0.00,,,0.00,5.000000,,2013-04-16 12:42:00,
2013-04-16 08:52:00,61.0,60.0,-100.00,North,9,1.0,3.0,97,0.00,,,0.00,5.000000,,2013-04-16 12:52:00,
2013-04-16 09:02:00,62.0,61.0,-100.00,NNE,30,2.0,3.0,97,0.00,,,0.00,38.000000,,2013-04-16 13:02:00,
2013-04-16 09:32:00,62.0,61.0,-100.00,NNE,30,2.0,3.0,97,0.00,,,0.00,38.000000,,2013-04-16 13:32:00,
2013-04-16 09:42:00,62.0,61.0,-100.00,NNE,30,2.0,3.0,97,0.00,,,0.00,38.000000,,2013-04-16 13:42:00,
2013-04-16 09:52:00,62.0,61.0,-100.00,NNE,30,2.0,3.0,97,0.00,,,0.00,38.000000,,2013-04-16 13:52:00,
2013-04-16 10:02:00,62.0,61.0,-100.00,NNE,14,2.0,4.0,97,0.00,,,0.00,77.000000,,2013-04-16 14:02:00,
2013-04-16 10:23:00,62.0,61.0,-100.00,NNE,14,2.0,4.0,97,0.00,,,0.00,77.000000,,2013-04-16 14:23:00,
2013-04-16 10:32:00,62.0,61.0,-100.00,NNE,14,2.0,4.0,97,0.00,,,0.00,77.000000,,2013-04-16 14:32:00,
2013-04-16 10:42:00,62.0,61.0,-100.00,NNE,14,2.0,4.0,97,0.00,,,0.00,77.000000,,2013-04-16 14:42:00,
2013-04-16 10:52:00,62.0,61.0,-100.00,NNE,14,2.0,4.0,97,0.00,,,0.00,77.000000,,2013-04-16 14:52:00,
2013-04-16 11:02:00,65.0,61.0,-100.00,SSE,150,2.0,5.0,86,0.00,,,0.00,144.000000,,2013-04-16 15:02:00,
2013-04-16 11:33:00,65.0,61.0,-100.00,SSE,150,2.0,5.0,86,0.00,,,0.00,144.000000,,2013-04-16 15:33:00,
2013-04-16 11:43:00,65.0,61.0,-100.00,SSE,150,2.0,5.0,86,0.00,,,0.00,144.000000,,2013-04-16 15:43:00,
2013-04-16 11:53:00,65.0,61.0,-100.00,SSE,150,2.0,5.0,86,0.00,,,0.00,144.000000,,2013-04-16 15:53:00,
2013-04-16 12:02:00,69.0,61.0,-100.00,South,182,2.0,5.0,75,0.00,,,0.00,288.000000,,2013-04-16 16:02:00,
2013-04-16 12:23:00,69.0,61.0,-100.00,South,182,2.0,5.0,75,0.00,,,0.00,288.000000,,2013-04-16 16:23:00,
2013-04-16 12:33:00,69.0,61.0,-100.00,South,182,2.0,5.0,75,0.00,,,0.00,288.000000,,2013-04-16 16:33:00,
2013-04-16 12:42:00,69.0,61.0,-100.00,South,182,2.0,5.0,75,0.00,,,0.00,288.000000,,2013-04-16 16:42:00,
2013-04-16 12:53:00,69.0,61.0,-100.00,South,182,2.0,5.0,75,0.00,,,0.00,288.000000,,2013-04-16 16:53:00,
2013-04-16 13:02:00,71.0,60.0,-100.00,South,174,2.0,5.0,68,0.00,,,0.00,394.000000,,2013-04-16 17:02:00,
2013-04-16 13:33:00,71.0,60.0,-100.00,South,174,2.0,5.0,68,0.00,,,0.00,394.000000,,2013-04-16 17:33:00,
2013-04-16 13:43:00,71.0,60.0,-100.00,South,174,2.0,5.0,68,0.00,,,0.00,394.000000,,2013-04-16 17:43:00,
2013-04-16 13:53:00,71.0,60.0,-100.00,South,174,2.0,5.0,68,0.00,,,0.00,394.000000,,2013-04-16 17:53:00,
2013-04-16 14:02:00,75.0,59.0,-100.00,SE,139,3.0,5.0,58,0.00,,,0.00,652.000000,,2013-04-16 18:02:00,
2013-04-16 14:32:00,75.0,59.0,-100.00,SE,139,3.0,5.0,58,0.00,,,0.00,652.000000,,2013-04-16 18:32:00,
2013-04-16 14:43:00,75.0,59.0,-100.00,SE,139,3.0,5.0,58,0.00,,,0.00,652.000000,,2013-04-16 18:43:00,
2013-04-16 14:52:00,75.0,59.0,-100.00,SE,139,3.0,5.0,58,0.00,,,0.00,652.000000,,2013-04-16 18:52:00,
2013-04-16 15:02:00,79.0,61.0,-100.00,ESE,114,3.0,6.0,55,0.00,,,0.00,929.000000,,2013-04-16 19:02:00,
2013-04-16 15:22:00,79.0,61.0,-100.00,ESE,114,3.0,6.0,55,0.00,,,0.00,929.000000,,2013-04-16 19:22:00,
2013-04-16 15:32:00,79.0,61.0,-100.00,ESE,114,3.0,6.0,55,0.00,,,0.00,929.000000,,2013-04-16 19:32:00,
2013-04-16 15:43:00,79.0,61.0,-100.00,ESE,114,3.0,6.0,55,0.00,,,0.00,929.000000,,2013-04-16 19:43:00,
2013-04-16 15:52:00,79.0,61.0,-100.00,ESE,114,3.0,6.0,55,0.00,,,0.00,929.000000,,2013-04-16 19:52:00,
2013-04-16 16:02:00,78.0,59.0,-100.00,South,183,3.0,7.0,53,0.00,,,0.00,748.000000,,2013-04-16 20:02:00,
2013-04-16 16:32:00,78.0,59.0,-100.00,South,183,3.0,7.0,53,0.00,,,0.00,748.000000,,2013-04-16 20:32:00,
2013-04-16 16:42:00,78.0,59.0,-100.00,South,183,3.0,7.0,53,0.00,,,0.00,748.000000,,2013-04-16 20:42:00,
2013-04-16 16:52:00,78.0,59.0,-100.00,South,183,3.0,7.0,53,0.00,,,0.00,748.000000,,2013-04-16 20:52:00,
2013-04-16 17:02:00,80.0,60.0,-100.00,SE,135,2.0,5.0,50,0.00,,,0.00,489.000000,,2013-04-16 21:02:00,
2013-04-16 17:22:00,80.0,60.0,-100.00,SE,135,2.0,5.0,50,0.00,,,0.00,489.000000,,2013-04-16 21:22:00,
2013-04-16 17:33:00,80.0,60.0,-100.00,SE,135,2.0,5.0,50,0.00,,,0.00,489.000000,,2013-04-16 21:33:00,
2013-04-16 17:43:00,80.0,60.0,-100.00,SE,135,2.0,5.0,50,0.00,,,0.00,489.000000,,2013-04-16 21:43:00,
2013-04-16 17:53:00,80.0,60.0,-100.00,SE,135,2.0,5.0,50,0.00,,,0.00,489.000000,,2013-04-16 21:53:00,
2013-04-16 18:02:00,79.0,61.0,-100.00,ESE,119,2.0,5.0,55,0.00,,,0.00,318.000000,,2013-04-16 22:02:00,
2013-04-16 18:33:00,79.0,61.0,-100.00,ESE,119,2.0,5.0,55,0.00,,,0.00,318.000000,,2013-04-16 22:33:00,
2013-04-16 18:43:00,79.0,61.0,-100.00,ESE,119,2.0,5.0,55,0.00,,,0.00,318.000000,,2013-04-16 22:43:00,
2013-04-16 18:52:00,79.0,61.0,-100.00,ESE,119,2.0,5.0,55,0.00,,,0.00,318.000000,,2013-04-16 22:52:00,
2013-04-16 19:02:00,75.0,61.0,-100.00,South,172,1.0,5.0,61,0.00,,,0.00,106.000000,,2013-04-16 23:02:00,
2013-04-16 19:32:00,75.0,61.0,-100.00,South,172,1.0,5.0,61,0.00,,,0.00,106.000000,,2013-04-16 23:32:00,
2013-04-16 19:43:00,75.0,61.0,-100.00,South,172,1.0,5.0,61,0.00,,,0.00,106.000000,,2013-04-16 23:43:00,
2013-04-16 19:52:00,75.0,61.0,-100.00,South,172,1.0,5.0,61,0.00,,,0.00,106.000000,,2013-04-16 23:52:00,
2013-04-16 20:02:00,72.0,61.0,-100.00,SSE,155,0.0,2.0,68,0.00,,,0.00,38.000000,,2013-04-17 00:02:00,
2013-04-16 20:32:00,72.0,61.0,-100.00,SSE,155,0.0,2.0,68,0.00,,,0.00,38.000000,,2013-04-17 00:32:00,
2013-04-16 20:42:00,72.0,61.0,-100.00,SSE,155,0.0,2.0,68,0.00,,,0.00,38.000000,,2013-04-17 00:42:00,
2013-04-16 20:52:00,72.0,61.0,-100.00,SSE,155,0.0,2.0,68,0.00,,,0.00,38.000000,,2013-04-17 00:52:00,
2013-04-16 21:02:00,70.0,61.0,-100.00,South,190,1.0,2.0,72,0.00,,,0.00,0.000000,,2013-04-17 01:02:00,
2013-04-16 21:32:00,70.0,61.0,-100.00,South,190,1.0,2.0,72,0.00,,,0.00,0.000000,,2013-04-17 01:32:00,
2013-04-16 21:42:00,70.0,61.0,-100.00,South,190,1.0,2.0,72,0.00,,,0.00,0.000000,,2013-04-17 01:42:00,
2013-04-16 21:52:00,70.0,61.0,-100.00,South,190,1.0,2.0,72,0.00,,,0.00,0.000000,,2013-04-17 01:52:00,
2013-04-16 22:02:00,69.0,61.0,-100.00,West,272,1.0,2.0,77,0.00,,,0.00,0.000000,,2013-04-17 02:02:00,
2013-04-16 22:22:00,69.0,61.0,-100.00,West,272,1.0,2.0,77,0.00,,,0.00,0.000000,,2013-04-17 02:22:00,
2013-04-16 22:32:00,69.0,61.0,-100.00,West,272,1.0,2.0,77,0.00,,,0.00,0.000000,,2013-04-17 02:32:00,
2013-04-16 22:42:00,69.0,61.0,-100.00,West,272,1.0,2.0,77,0.00,,,0.00,0.000000,,2013-04-17 02:42:00,
2013-04-16 22:52:00,69.0,61.0,-100.00,West,272,1.0,2.0,77,0.00,,,0.00,0.000000,,2013-04-17 02:52:00,
2013-04-16 23:02:00,69.0,61.0,-100.00,NNW,338,1.0,2.0,76,0.00,,,0.00,0.000000,,2013-04-17 03:02:00,
2013-04-16 23:33:00,69.0,61.0,-100.00,NNW,338,1.0,2.0,76,0.00,,,0.00,0.000000,,2013-04-17 03:33:00,
2013-04-16 23:42:00,69.0,61.0,-100.00,NNW,338,1.0,2.0,76,0.00,,,0.00,0.000000,,2013-04-17 03:42:00,
2013-04-16 23:53:00,69.0,61.0,-100.00,NNW,338,1.0,2.0,76,0.00,,,0.00,0.000000,,2013-04-17 03:53:00,